PST,Max TemperatureF,Mean TemperatureF,Min TemperatureF,Max Dew PointF,MeanDew PointF,Min DewpointF,Max Humidity, Mean Humidity, Min Humidity, Max Sea Level PressureIn, Mean Sea Level PressureIn, Min Sea Level PressureIn, Max VisibilityMiles, Mean VisibilityMiles, Min VisibilityMiles, Max Wind SpeedMPH, Mean Wind SpeedMPH, Max Gust SpeedMPH,PrecipitationIn, CloudCover, Events, WindDirDegrees
2013-2-1,76,63,50,50,41,33,77,49,21,30.17,30.13,30.10,10,10,10,12,1,16,0.00,0,,270
2013-2-2,75,66,56,48,41,34,72,48,23,30.18,30.14,30.09,10,10,10,9,1,21,0.00,3,,300
2013-2-3,77,67,56,50,45,40,77,52,27,30.12,30.06,29.98,10,10,10,9,1,18,0.00,0,,250
2013-2-4,70,60,50,52,50,48,93,72,51,30.09,30.04,29.98,10,6,3,8,1,12,0.00,2,,270
2013-2-5,60,57,54,52,49,48,93,83,72,30.10,30.04,29.99,9,4,2,7,1,12,0.00,7,,252
2013-2-6,64,57,50,49,47,43,89,69,48,30.12,30.05,30.01,8,5,2,8,1,12,0.00,4,,270
2013-2-7,61,53,45,47,46,42,93,77,60,30.14,30.07,29.99,10,6,4,7,1,14,0.00,4,,255
2013-2-8,55,50,44,45,39,35,77,66,54,29.99,29.94,29.88,10,10,5,10,2,21,0.02,3,Rain,270
2013-2-9,59,49,39,40,36,31,92,64,36,30.11,30.02,29.95,10,10,10,7,2,12,0.00,0,,98
2013-2-10,58,51,44,42,39,36,76,62,47,30.11,30.07,30.02,10,10,10,5,1,,T,6,Rain,88
2013-2-11,63,53,43,40,36,26,76,51,25,30.24,30.14,30.06,10,10,10,10,1,17,0.00,0,,170
2013-2-12,65,53,41,43,32,20,71,46,20,30.35,30.28,30.24,10,10,10,8,1,14,0.00,0,,257
2013-2-13,69,56,42,48,38,27,89,56,22,30.26,30.20,30.14,10,10,9,8,1,12,0.00,0,,100
2013-2-14,75,60,45,49,41,28,93,56,19,30.19,30.13,30.06,10,9,6,8,0,12,0.00,0,,280
2013-2-15,81,64,47,45,29,15,83,46,9,30.18,30.14,30.11,10,10,7,8,1,13,0.00,0,,283
2013-2-16,82,68,53,35,20,8,43,25,6,30.15,30.06,29.97,10,10,10,9,2,15,0.00,0,,18
2013-2-17,70,59,47,50,43,30,83,58,33,30.03,29.97,29.91,10,10,9,8,2,13,0.00,2,,120
2013-2-18,64,59,53,46,44,42,77,63,48,30.07,30.01,29.96,10,10,10,9,2,13,0.00,6,,120
2013-2-19,57,52,47,46,42,37,71,63,54,29.99,29.86,29.72,10,9,2,10,2,17,0.18,8,Rain,237
2013-2-20,61,51,41,37,29,21,82,55,27,30.00,29.89,29.72,10,10,10,15,5,31,0.00,0,,286
2013-2-21,62,54,46,41,36,30,66,50,34,30.09,30.03,29.98,10,10,10,9,3,18,0.00,2,,43
2013-2-22,68,56,43,46,36,29,83,55,26,30.20,30.15,30.11,10,10,9,10,1,15,0.00,0,,265
2013-2-23,64,54,44,47,40,34,86,60,34,30.16,30.04,29.93,10,10,10,8,1,15,0.00,0,,174
2013-2-24,68,58,47,46,33,15,93,54,14,30.20,30.09,29.99,10,10,5,9,2,15,0.00,0,,280
2013-2-25,71,58,44,45,27,5,77,43,8,30.22,30.15,30.08,10,10,10,10,1,16,0.00,0,,90
2013-2-26,74,59,43,43,35,19,80,48,15,30.12,30.04,29.98,10,10,10,8,1,13,0.00,0,,100
2013-2-27,76,62,47,40,25,8,59,34,8,30.26,30.19,30.12,10,10,9,8,1,16,0.00,0,,335
2013-2-28,80,65,49,45,23,6,66,37,7,30.30,30.27,30.23,10,10,10,9,1,15,0.00,0,,346